sensor_id;sensor_type;location;lat;lon;timestamp;pressure;altitude;pressure_sealevel;temperature;humidity
36092;BME280;22147;52.388;13.390;2023-02-07T00:01:37;103681.22;;;-7.95;100.00
36092;BME280;22147;52.388;13.390;2023-02-07T00:04:07;103686.03;;;-7.99;100.00
36092;BME280;22147;52.388;13.390;2023-02-07T00:06:37;103687.03;;;-8.00;100.00
36092;BME280;22147;52.388;13.390;2023-02-07T00:09:10;103688.84;;;-8.00;100.00
36092;BME280;22147;52.388;13.390;2023-02-07T00:11:39;103681.88;;;-8.03;100.00
36092;BME280;22147;52.388;13.390;2023-02-07T00:14:11;103695.53;;;-8.04;100.00
36092;BME280;22147;52.388;13.390;2023-02-07T00:16:41;103686.56;;;-8.05;100.00
36092;BME280;22147;52.388;13.390;2023-02-07T00:19:11;103675.91;;;-8.06;100.00
36092;BME280;22147;52.388;13.390;2023-02-07T00:21:41;103685.09;;;-8.09;100.00
36092;BME280;22147;52.388;13.390;2023-02-07T00:24:11;103683.41;;;-8.10;100.00
36092;BME280;22147;52.388;13.390;2023-02-07T00:26:41;103678.25;;;-8.13;100.00
36092;BME280;22147;52.388;13.390;2023-02-07T00:29:12;103676.56;;;-8.14;100.00
36092;BME280;22147;52.388;13.390;2023-02-07T00:31:42;103677.53;;;-8.15;100.00
36092;BME280;22147;52.388;13.390;2023-02-07T00:34:12;103679.50;;;-8.17;100.00
36092;BME280;22147;52.388;13.390;2023-02-07T00:36:42;103668.88;;;-8.19;100.00
36092;BME280;22147;52.388;13.390;2023-02-07T00:39:16;103673.66;;;-8.22;100.00
36092;BME280;22147;52.388;13.390;2023-02-07T00:41:45;103683.72;;;-8.24;100.00
36092;BME280;22147;52.388;13.390;2023-02-07T00:44:13;103676.75;;;-8.27;100.00
36092;BME280;22147;52.388;13.390;2023-02-07T00:46:41;103676.75;;;-8.27;100.00
36092;BME280;22147;52.388;13.390;2023-02-07T00:49:10;103675.31;;;-8.31;100.00
36092;BME280;22147;52.388;13.390;2023-02-07T00:51:38;103672.63;;;-8.31;100.00
36092;BME280;22147;52.388;13.390;2023-02-07T00:54:07;103668.19;;;-8.32;100.00
36092;BME280;22147;52.388;13.390;2023-02-07T00:56:35;103665.66;;;-8.33;100.00
36092;BME280;22147;52.388;13.390;2023-02-07T00:59:04;103665.50;;;-8.32;100.00
36092;BME280;22147;52.388;13.390;2023-02-07T01:01:32;103660.97;;;-8.31;100.00
36092;BME280;22147;52.388;13.390;2023-02-07T01:04:00;103666.38;;;-8.31;100.00
36092;BME280;22147;52.388;13.390;2023-02-07T01:06:29;103671.16;;;-8.35;100.00
36092;BME280;22147;52.388;13.390;2023-02-07T01:09:02;103665.16;;;-8.39;100.00
36092;BME280;22147;52.388;13.390;2023-02-07T01:11:34;103674.25;;;-8.40;100.00
36092;BME280;22147;52.388;13.390;2023-02-07T01:14:04;103671.84;;;-8.43;100.00
36092;BME280;22147;52.388;13.390;2023-02-07T01:16:35;103666.59;;;-8.44;100.00
36092;BME280;22147;52.388;13.390;2023-02-07T01:19:07;103679.19;;;-8.45;100.00
36092;BME280;22147;52.388;13.390;2023-02-07T01:21:38;103678.34;;;-8.45;100.00
36092;BME280;22147;52.388;13.390;2023-02-07T01:24:07;103671.28;;;-8.46;100.00
36092;BME280;22147;52.388;13.390;2023-02-07T01:26:38;103669.94;;;-8.52;100.00
36092;BME280;22147;52.388;13.390;2023-02-07T01:29:13;103668.25;;;-8.53;100.00
36092;BME280;22147;52.388;13.390;2023-02-07T01:31:42;103665.91;;;-8.57;100.00
36092;BME280;22147;52.388;13.390;2023-02-07T01:34:12;103665.34;;;-8.61;100.00
36092;BME280;22147;52.388;13.390;2023-02-07T01:36:42;103657.25;;;-8.61;100.00
36092;BME280;22147;52.388;13.390;2023-02-07T01:39:12;103656.38;;;-8.62;100.00
36092;BME280;22147;52.388;13.390;2023-02-07T01:41:41;103649.28;;;-8.63;100.00
36092;BME280;22147;52.388;13.390;2023-02-07T01:46:52;103659.34;;;-8.65;100.00
36092;BME280;22147;52.388;13.390;2023-02-07T01:49:32;103654.91;;;-8.66;100.00
36092;BME280;22147;52.388;13.390;2023-02-07T01:52:11;103653.09;;;-8.65;100.00
36092;BME280;22147;52.388;13.390;2023-02-07T01:54:50;103653.22;;;-8.67;100.00
36092;BME280;22147;52.388;13.390;2023-02-07T01:57:25;103657.88;;;-8.69;100.00
36092;BME280;22147;52.388;13.390;2023-02-07T01:59:57;103667.09;;;-8.71;100.00
36092;BME280;22147;52.388;13.390;2023-02-07T02:02:31;103656.44;;;-8.73;100.00
36092;BME280;22147;52.388;13.390;2023-02-07T02:05:04;103656.53;;;-8.74;100.00
36092;BME280;22147;52.388;13.390;2023-02-07T02:07:39;103661.22;;;-8.76;100.00
36092;BME280;22147;52.388;13.390;2023-02-07T02:10:20;103665.75;;;-8.77;100.00
36092;BME280;22147;52.388;13.390;2023-02-07T02:17:01;103657.22;;;-8.82;100.00
36092;BME280;22147;52.388;13.390;2023-02-07T02:23:42;103638.59;;;-8.85;100.00
36092;BME280;22147;52.388;13.390;2023-02-07T02:30:05;103638.75;;;-8.87;100.00
36092;BME280;22147;52.388;13.390;2023-02-07T02:33:27;103637.00;;;-8.88;100.00
36092;BME280;22147;52.388;13.390;2023-02-07T02:39:06;103628.06;;;-8.88;100.00
36092;BME280;22147;52.388;13.390;2023-02-07T02:44:56;103627.47;;;-8.92;100.00
36092;BME280;22147;52.388;13.390;2023-02-07T02:47:33;103629.31;;;-8.92;100.00
36092;BME280;22147;52.388;13.390;2023-02-07T02:50:11;103625.03;;;-8.95;100.00
36092;BME280;22147;52.388;13.390;2023-02-07T02:52:46;103629.81;;;-8.98;100.00
36092;BME280;22147;52.388;13.390;2023-02-07T03:02:02;103633.63;;;-9.01;100.00
36092;BME280;22147;52.388;13.390;2023-02-07T03:14:42;103627.28;;;-9.11;100.00
36092;BME280;22147;52.388;13.390;2023-02-07T03:17:12;103621.69;;;-9.19;100.00
36092;BME280;22147;52.388;13.390;2023-02-07T03:20:30;103625.00;;;-9.27;100.00
36092;BME280;22147;52.388;13.390;2023-02-07T03:23:05;103613.88;;;-9.34;100.00
36092;BME280;22147;52.388;13.390;2023-02-07T03:25:43;103604.22;;;-9.36;100.00
36092;BME280;22147;52.388;13.390;2023-02-07T03:28:17;103605.94;;;-9.35;100.00
36092;BME280;22147;52.388;13.390;2023-02-07T03:30:53;103596.03;;;-9.35;100.00
36092;BME280;22147;52.388;13.390;2023-02-07T03:33:27;103597.16;;;-9.37;100.00
36092;BME280;22147;52.388;13.390;2023-02-07T03:38:52;103602.16;;;-9.44;100.00
36092;BME280;22147;52.388;13.390;2023-02-07T03:41:56;103601.94;;;-9.52;100.00
36092;BME280;22147;52.388;13.390;2023-02-07T03:44:32;103604.03;;;-9.56;100.00
36092;BME280;22147;52.388;13.390;2023-02-07T03:47:04;103602.06;;;-9.54;100.00
36092;BME280;22147;52.388;13.390;2023-02-07T03:49:35;103602.78;;;-9.52;100.00
36092;BME280;22147;52.388;13.390;2023-02-07T03:52:05;103604.63;;;-9.52;100.00
36092;BME280;22147;52.388;13.390;2023-02-07T03:54:34;103605.50;;;-9.52;100.00
36092;BME280;22147;52.388;13.390;2023-02-07T03:57:02;103610.25;;;-9.55;100.00
36092;BME280;22147;52.388;13.390;2023-02-07T03:59:30;103597.06;;;-9.58;100.00
36092;BME280;22147;52.388;13.390;2023-02-07T04:01:59;103601.72;;;-9.60;100.00
36092;BME280;22147;52.388;13.390;2023-02-07T04:04:28;103605.63;;;-9.65;100.00
36092;BME280;22147;52.388;13.390;2023-02-07T04:06:55;103599.38;;;-9.65;100.00
36092;BME280;22147;52.388;13.390;2023-02-07T04:09:24;103594.97;;;-9.66;100.00
36092;BME280;22147;52.388;13.390;2023-02-07T04:11:53;103599.38;;;-9.65;100.00
36092;BME280;22147;52.388;13.390;2023-02-07T04:14:21;103596.69;;;-9.65;100.00
36092;BME280;22147;52.388;13.390;2023-02-07T04:16:49;103592.19;;;-9.65;100.00
36092;BME280;22147;52.388;13.390;2023-02-07T04:19:18;103593.88;;;-9.64;100.00
36092;BME280;22147;52.388;13.390;2023-02-07T04:21:46;103605.63;;;-9.65;100.00
36092;BME280;22147;52.388;13.390;2023-02-07T04:24:15;103608.31;;;-9.65;100.00
36092;BME280;22147;52.388;13.390;2023-02-07T04:26:43;103615.41;;;-9.64;100.00
36092;BME280;22147;52.388;13.390;2023-02-07T04:29:11;103616.38;;;-9.65;100.00
36092;BME280;22147;52.388;13.390;2023-02-07T04:31:40;103611.84;;;-9.64;100.00
36092;BME280;22147;52.388;13.390;2023-02-07T04:34:08;103616.38;;;-9.65;100.00
36092;BME280;22147;52.388;13.390;2023-02-07T04:36:36;103615.50;;;-9.65;100.00
36092;BME280;22147;52.388;13.390;2023-02-07T04:39:05;103614.53;;;-9.64;100.00
36092;BME280;22147;52.388;13.390;2023-02-07T04:41:33;103609.16;;;-9.64;100.00
36092;BME280;22147;52.388;13.390;2023-02-07T04:44:02;103614.66;;;-9.66;100.00
36092;BME280;22147;52.388;13.390;2023-02-07T04:46:30;103625.44;;;-9.66;100.00
36092;BME280;22147;52.388;13.390;2023-02-07T04:48:59;103626.53;;;-9.68;100.00
36092;BME280;22147;52.388;13.390;2023-02-07T04:51:27;103624.69;;;-9.68;100.00
36092;BME280;22147;52.388;13.390;2023-02-07T04:53:56;103622.38;;;-9.72;100.00
36092;BME280;22147;52.388;13.390;2023-02-07T04:56:24;103625.44;;;-9.77;100.00
36092;BME280;22147;52.388;13.390;2023-02-07T04:58:52;103623.84;;;-9.79;100.00
36092;BME280;22147;52.388;13.390;2023-02-07T05:01:21;103626.66;;;-9.81;100.00
36092;BME280;22147;52.388;13.390;2023-02-07T05:03:49;103626.66;;;-9.81;100.00
36092;BME280;22147;52.388;13.390;2023-02-07T05:06:17;103627.16;;;-9.87;100.00
36092;BME280;22147;52.388;13.390;2023-02-07T05:08:46;103617.38;;;-9.88;100.00
36092;BME280;22147;52.388;13.390;2023-02-07T05:11:14;103621.63;;;-9.97;100.00
36092;BME280;22147;52.388;13.390;2023-02-07T05:13:43;103630.53;;;-10.08;100.00
36092;BME280;22147;52.388;13.390;2023-02-07T05:16:11;103627.38;;;-10.13;100.00
36092;BME280;22147;52.388;13.390;2023-02-07T05:18:40;103628.34;;;-10.14;100.00
36092;BME280;22147;52.388;13.390;2023-02-07T05:21:08;103630.69;;;-10.09;100.00
36092;BME280;22147;52.388;13.390;2023-02-07T05:23:40;103627.53;;;-10.03;100.00
36092;BME280;22147;52.388;13.390;2023-02-07T05:26:10;103636.31;;;-10.01;100.00
36092;BME280;22147;52.388;13.390;2023-02-07T05:28:40;103630.31;;;-10.05;100.00
36092;BME280;22147;52.388;13.390;2023-02-07T05:31:10;103638.28;;;-10.03;100.00
36092;BME280;22147;52.388;13.390;2023-02-07T05:33:40;103630.22;;;-10.03;100.00
36092;BME280;22147;52.388;13.390;2023-02-07T05:36:10;103637.19;;;-10.00;100.00
36092;BME280;22147;52.388;13.390;2023-02-07T05:38:40;103651.84;;;-10.05;100.00
36092;BME280;22147;52.388;13.390;2023-02-07T05:41:10;103654.75;;;-10.08;100.00
36092;BME280;22147;52.388;13.390;2023-02-07T05:43:40;103649.00;;;-10.14;100.00
36092;BME280;22147;52.388;13.390;2023-02-07T05:46:10;103648.16;;;-10.15;100.00
36092;BME280;22147;52.388;13.390;2023-02-07T05:48:41;103640.94;;;-10.14;100.00
36092;BME280;22147;52.388;13.390;2023-02-07T05:51:11;103648.03;;;-10.13;100.00
36092;BME280;22147;52.388;13.390;2023-02-07T05:53:41;103650.72;;;-10.13;100.00
36092;BME280;22147;52.388;13.390;2023-02-07T05:56:11;103640.06;;;-10.26;100.00
36092;BME280;22147;52.388;13.390;2023-02-07T05:58:41;103646.69;;;-10.30;100.00
36092;BME280;22147;52.388;13.390;2023-02-07T06:01:11;103648.84;;;-10.35;100.00
36092;BME280;22147;52.388;13.390;2023-02-07T06:03:41;103650.44;;;-10.44;100.00
36092;BME280;22147;52.388;13.390;2023-02-07T06:06:11;103657.84;;;-10.48;100.00
36092;BME280;22147;52.388;13.390;2023-02-07T06:08:41;103658.50;;;-10.44;100.00
36092;BME280;22147;52.388;13.390;2023-02-07T06:11:11;103654.59;;;-10.40;100.00
36092;BME280;22147;52.388;13.390;2023-02-07T06:13:41;103659.88;;;-10.38;100.00
36092;BME280;22147;52.388;13.390;2023-02-07T06:16:11;103668.03;;;-10.40;100.00
36092;BME280;22147;52.388;13.390;2023-02-07T06:18:42;103668.78;;;-10.38;100.00
36092;BME280;22147;52.388;13.390;2023-02-07T06:21:12;103665.00;;;-10.35;100.00
36092;BME280;22147;52.388;13.390;2023-02-07T06:23:42;103669.50;;;-10.36;100.00
36092;BME280;22147;52.388;13.390;2023-02-07T06:26:12;103674.03;;;-10.36;100.00
36092;BME280;22147;52.388;13.390;2023-02-07T06:28:42;103672.84;;;-10.32;100.00
36092;BME280;22147;52.388;13.390;2023-02-07T06:31:13;103672.59;;;-10.29;100.00
36092;BME280;22147;52.388;13.390;2023-02-07T06:33:43;103670.59;;;-10.27;100.00
36092;BME280;22147;52.388;13.390;2023-02-07T06:36:13;103670.25;;;-10.34;100.00
36092;BME280;22147;52.388;13.390;2023-02-07T06:38:43;103675.00;;;-10.37;100.00
36092;BME280;22147;52.388;13.390;2023-02-07T06:41:14;103675.88;;;-10.37;100.00
36092;BME280;22147;52.388;13.390;2023-02-07T06:43:44;103687.13;;;-10.32;100.00
36092;BME280;22147;52.388;13.390;2023-02-07T06:46:14;103686.38;;;-10.34;100.00
36092;BME280;22147;52.388;13.390;2023-02-07T06:48:44;103686.84;;;-10.40;100.00
36092;BME280;22147;52.388;13.390;2023-02-07T06:51:14;103680.72;;;-10.42;100.00
36092;BME280;22147;52.388;13.390;2023-02-07T06:53:45;103677.09;;;-10.41;100.00
36092;BME280;22147;52.388;13.390;2023-02-07T06:56:15;103686.94;;;-10.41;100.00
36092;BME280;22147;52.388;13.390;2023-02-07T06:58:47;103682.56;;;-10.42;100.00
36092;BME280;22147;52.388;13.390;2023-02-07T07:01:17;103686.47;;;-10.47;100.00
36092;BME280;22147;52.388;13.390;2023-02-07T07:03:48;103692.56;;;-10.45;100.00
36092;BME280;22147;52.388;13.390;2023-02-07T07:06:20;103684.78;;;-10.36;100.00
36092;BME280;22147;52.388;13.390;2023-02-07T07:08:48;103685.78;;;-10.26;100.00
36092;BME280;22147;52.388;13.390;2023-02-07T07:11:20;103693.94;;;-10.28;100.00
36092;BME280;22147;52.388;13.390;2023-02-07T07:13:50;103688.09;;;-10.21;100.00
36092;BME280;22147;52.388;13.390;2023-02-07T07:16:20;103688.59;;;-10.16;100.00
36092;BME280;22147;52.388;13.390;2023-02-07T07:18:51;103683.47;;;-10.08;100.00
36092;BME280;22147;52.388;13.390;2023-02-07T07:21:21;103678.34;;;-10.00;100.00
36092;BME280;22147;52.388;13.390;2023-02-07T07:23:51;103683.16;;;-9.92;100.00
36092;BME280;22147;52.388;13.390;2023-02-07T07:26:21;103668.97;;;-9.83;100.00
36092;BME280;22147;52.388;13.390;2023-02-07T07:28:51;103662.47;;;-9.80;100.00
36092;BME280;22147;52.388;13.390;2023-02-07T07:31:26;103664.06;;;-9.78;100.00
36092;BME280;22147;52.388;13.390;2023-02-07T07:33:57;103660.31;;;-9.75;100.00
36092;BME280;22147;52.388;13.390;2023-02-07T07:36:25;103667.88;;;-9.69;100.00
36092;BME280;22147;52.388;13.390;2023-02-07T07:38:55;103667.13;;;-9.60;100.00
36092;BME280;22147;52.388;13.390;2023-02-07T07:41:23;103677.41;;;-9.54;100.00
36092;BME280;22147;52.388;13.390;2023-02-07T07:43:52;103655.63;;;-9.51;100.00
36092;BME280;22147;52.388;13.390;2023-02-07T07:46:20;103656.22;;;-9.36;100.00
36092;BME280;22147;52.388;13.390;2023-02-07T07:48:49;103663.69;;;-9.28;100.00
36092;BME280;22147;52.388;13.390;2023-02-07T07:51:17;103659.13;;;-9.16;100.00
36092;BME280;22147;52.388;13.390;2023-02-07T07:53:45;103663.38;;;-9.03;100.00
36092;BME280;22147;52.388;13.390;2023-02-07T07:56:14;103674.50;;;-8.96;100.00
36092;BME280;22147;52.388;13.390;2023-02-07T07:58:42;103671.56;;;-8.93;100.00
36092;BME280;22147;52.388;13.390;2023-02-07T08:01:11;103673.75;;;-8.87;100.00
36092;BME280;22147;52.388;13.390;2023-02-07T08:03:40;103674.56;;;-8.75;100.00
36092;BME280;22147;52.388;13.390;2023-02-07T08:06:08;103675.75;;;-8.68;100.00
36092;BME280;22147;52.388;13.390;2023-02-07T08:08:37;103677.94;;;-8.62;100.00
36092;BME280;22147;52.388;13.390;2023-02-07T08:11:08;103685.09;;;-8.51;100.00
36092;BME280;22147;52.388;13.390;2023-02-07T08:13:39;103691.72;;;-8.34;100.00
36092;BME280;22147;52.388;13.390;2023-02-07T08:16:09;103695.69;;;-8.17;100.00
36092;BME280;22147;52.388;13.390;2023-02-07T08:18:42;103692.81;;;-8.04;100.00
36092;BME280;22147;52.388;13.390;2023-02-07T08:21:13;103690.28;;;-7.96;100.00
36092;BME280;22147;52.388;13.390;2023-02-07T08:23:43;103684.97;;;-7.86;100.00
36092;BME280;22147;52.388;13.390;2023-02-07T08:26:13;103677.78;;;-7.76;100.00
36092;BME280;22147;52.388;13.390;2023-02-07T08:28:43;103683.81;;;-7.63;100.00
36092;BME280;22147;52.388;13.390;2023-02-07T08:31:13;103679.75;;;-7.47;100.00
36092;BME280;22147;52.388;13.390;2023-02-07T08:33:44;103679.38;;;-7.33;100.00
36092;BME280;22147;52.388;13.390;2023-02-07T08:36:14;103678.28;;;-7.21;100.00
36092;BME280;22147;52.388;13.390;2023-02-07T08:38:44;103678.44;;;-7.03;100.00
36092;BME280;22147;52.388;13.390;2023-02-07T08:41:14;103675.78;;;-6.93;100.00
36092;BME280;22147;52.388;13.390;2023-02-07T08:43:44;103687.03;;;-6.78;100.00
36092;BME280;22147;52.388;13.390;2023-02-07T08:46:14;103671.09;;;-6.52;100.00
36092;BME280;22147;52.388;13.390;2023-02-07T08:48:44;103677.63;;;-6.35;100.00
36092;BME280;22147;52.388;13.390;2023-02-07T08:51:14;103674.06;;;-6.16;100.00
36092;BME280;22147;52.388;13.390;2023-02-07T08:53:43;103686.66;;;-5.78;100.00
36092;BME280;22147;52.388;13.390;2023-02-07T08:56:11;103683.28;;;-5.62;100.00
36092;BME280;22147;52.388;13.390;2023-02-07T08:58:40;103688.72;;;-5.24;100.00
36092;BME280;22147;52.388;13.390;2023-02-07T09:01:08;103678.00;;;-4.98;100.00
36092;BME280;22147;52.388;13.390;2023-02-07T09:03:39;103686.22;;;-4.90;100.00
36092;BME280;22147;52.388;13.390;2023-02-07T09:06:08;103674.84;;;-4.40;100.00
36092;BME280;22147;52.388;13.390;2023-02-07T09:08:36;103674.63;;;-4.02;100.00
36092;BME280;22147;52.388;13.390;2023-02-07T09:11:04;103674.09;;;-3.80;100.00
36092;BME280;22147;52.388;13.390;2023-02-07T09:13:36;103677.34;;;-3.42;100.00
36092;BME280;22147;52.388;13.390;2023-02-07T09:16:04;103670.38;;;-3.44;100.00
36092;BME280;22147;52.388;13.390;2023-02-07T09:18:33;103661.50;;;-3.12;100.00
36092;BME280;22147;52.388;13.390;2023-02-07T09:21:04;103661.03;;;-2.99;100.00
36092;BME280;22147;52.388;13.390;2023-02-07T09:23:35;103659.66;;;-3.03;100.00
36092;BME280;22147;52.388;13.390;2023-02-07T09:26:07;103658.38;;;-2.75;100.00
36092;BME280;22147;52.388;13.390;2023-02-07T09:28:48;103655.50;;;-2.49;100.00
36092;BME280;22147;52.388;13.390;2023-02-07T09:31:18;103662.47;;;-2.46;100.00
36092;BME280;22147;52.388;13.390;2023-02-07T09:33:50;103669.63;;;-2.53;100.00
36092;BME280;22147;52.388;13.390;2023-02-07T09:36:26;103676.09;;;-2.46;100.00
36092;BME280;22147;52.388;13.390;2023-02-07T09:38:59;103681.16;;;-2.68;100.00
36092;BME280;22147;52.388;13.390;2023-02-07T09:47:25;103689.34;;;-2.51;100.00
36092;BME280;22147;52.388;13.390;2023-02-07T09:50:03;103683.75;;;-2.58;100.00
36092;BME280;22147;52.388;13.390;2023-02-07T09:52:54;103678.63;;;-2.44;100.00
36092;BME280;22147;52.388;13.390;2023-02-07T09:55:45;103691.56;;;-2.47;100.00
36092;BME280;22147;52.388;13.390;2023-02-07T10:01:26;103691.06;;;-2.26;100.00
36092;BME280;22147;52.388;13.390;2023-02-07T10:06:55;103707.34;;;-1.68;100.00
36092;BME280;22147;52.388;13.390;2023-02-07T10:09:36;103712.28;;;-1.55;100.00
36092;BME280;22147;52.388;13.390;2023-02-07T10:22:51;103718.59;;;0.16;100.00
36092;BME280;22147;52.388;13.390;2023-02-07T10:26:21;103722.41;;;0.75;100.00
36092;BME280;22147;52.388;13.390;2023-02-07T10:32:22;103709.44;;;1.13;100.00
36092;BME280;22147;52.388;13.390;2023-02-07T10:35:00;103708.19;;;1.16;100.00
36092;BME280;22147;52.388;13.390;2023-02-07T10:37:37;103699.25;;;1.43;100.00
36092;BME280;22147;52.388;13.390;2023-02-07T10:40:32;103704.28;;;1.61;100.00
36092;BME280;22147;52.388;13.390;2023-02-07T10:43:31;103698.75;;;1.76;100.00
36092;BME280;22147;52.388;13.390;2023-02-07T10:46:10;103704.09;;;1.85;100.00
36092;BME280;22147;52.388;13.390;2023-02-07T10:48:42;103701.94;;;1.58;95.27
36092;BME280;22147;52.388;13.390;2023-02-07T10:51:32;103701.78;;;1.88;97.94
36092;BME280;22147;52.388;13.390;2023-02-07T10:54:07;103709.75;;;2.33;100.00
36092;BME280;22147;52.388;13.390;2023-02-07T10:56:53;103711.84;;;2.31;93.91
36092;BME280;22147;52.388;13.390;2023-02-07T10:59:41;103705.56;;;2.09;94.77
36092;BME280;22147;52.388;13.390;2023-02-07T11:05:00;103707.97;;;2.18;97.88
36092;BME280;22147;52.388;13.390;2023-02-07T11:07:31;103708.06;;;2.32;92.78
36092;BME280;22147;52.388;13.390;2023-02-07T11:10:25;103701.78;;;2.10;91.13
36092;BME280;22147;52.388;13.390;2023-02-07T11:13:02;103706.03;;;1.69;91.93
36092;BME280;22147;52.388;13.390;2023-02-07T11:16:02;103698.94;;;1.32;93.20
36092;BME280;22147;52.388;13.390;2023-02-07T11:23:59;103691.34;;;0.82;98.32
36092;BME280;22147;52.388;13.390;2023-02-07T11:26:40;103692.44;;;0.52;98.90
36092;BME280;22147;52.388;13.390;2023-02-07T11:29:45;103695.81;;;0.24;100.00
36092;BME280;22147;52.388;13.390;2023-02-07T11:32:24;103688.94;;;0.28;100.00
36092;BME280;22147;52.388;13.390;2023-02-07T11:35:18;103686.16;;;-0.02;99.59
36092;BME280;22147;52.388;13.390;2023-02-07T11:38:12;103691.84;;;-0.11;99.41
36092;BME280;22147;52.388;13.390;2023-02-07T11:43:15;103686.00;;;-0.23;99.24
36092;BME280;22147;52.388;13.390;2023-02-07T11:45:51;103686.00;;;-0.46;99.75
36092;BME280;22147;52.388;13.390;2023-02-07T11:48:38;103681.44;;;-0.54;99.44
36092;BME280;22147;52.388;13.390;2023-02-07T11:51:17;103665.22;;;-0.78;100.00
36092;BME280;22147;52.388;13.390;2023-02-07T11:53:58;103667.16;;;-0.64;100.00
36092;BME280;22147;52.388;13.390;2023-02-07T11:56:41;103666.63;;;-0.83;100.00
36092;BME280;22147;52.388;13.390;2023-02-07T11:59:25;103669.88;;;-0.87;100.00
36092;BME280;22147;52.388;13.390;2023-02-07T12:02:34;103660.56;;;-0.70;100.00
36092;BME280;22147;52.388;13.390;2023-02-07T12:05:21;103660.09;;;-0.73;100.00
36092;BME280;22147;52.388;13.390;2023-02-07T12:08:05;103671.66;;;-0.71;100.00
36092;BME280;22147;52.388;13.390;2023-02-07T12:11:16;103659.22;;;-0.97;100.00
36092;BME280;22147;52.388;13.390;2023-02-07T12:14:18;103666.34;;;-0.96;100.00
36092;BME280;22147;52.388;13.390;2023-02-07T12:17:00;103668.94;;;-0.71;100.00
36092;BME280;22147;52.388;13.390;2023-02-07T12:20:00;103666.97;;;-0.86;100.00
36092;BME280;22147;52.388;13.390;2023-02-07T12:23:02;103667.91;;;-0.70;100.00
36092;BME280;22147;52.388;13.390;2023-02-07T12:38:53;103646.44;;;-0.50;96.84
36092;BME280;22147;52.388;13.390;2023-02-07T12:41:54;103646.13;;;-0.55;96.62
36092;BME280;22147;52.388;13.390;2023-02-07T12:44:54;103642.06;;;-0.59;98.09
36092;BME280;22147;52.388;13.390;2023-02-07T12:47:54;103636.78;;;-0.38;97.69
36092;BME280;22147;52.388;13.390;2023-02-07T12:50:50;103633.84;;;-0.36;94.82
36092;BME280;22147;52.388;13.390;2023-02-07T12:57:42;103621.63;;;-0.26;93.49
36092;BME280;22147;52.388;13.390;2023-02-07T13:10:18;103604.00;;;0.00;96.53
36092;BME280;22147;52.388;13.390;2023-02-07T13:16:12;103595.75;;;-0.15;98.95
36092;BME280;22147;52.388;13.390;2023-02-07T13:19:14;103601.44;;;-0.02;97.43
36092;BME280;22147;52.388;13.390;2023-02-07T13:24:55;103609.63;;;-0.02;96.13
36092;BME280;22147;52.388;13.390;2023-02-07T13:27:29;103608.00;;;-0.11;99.58
36092;BME280;22147;52.388;13.390;2023-02-07T13:30:01;103603.50;;;-0.04;99.80
36092;BME280;22147;52.388;13.390;2023-02-07T13:32:31;103607.75;;;-0.01;99.14
36092;BME280;22147;52.388;13.390;2023-02-07T13:35:14;103612.78;;;-0.13;100.00
36092;BME280;22147;52.388;13.390;2023-02-07T13:41:23;103599.25;;;-0.06;100.00
36092;BME280;22147;52.388;13.390;2023-02-07T13:54:01;103591.91;;;-0.06;100.00
36092;BME280;22147;52.388;13.390;2023-02-07T13:56:59;103594.25;;;-0.03;98.69
36092;BME280;22147;52.388;13.390;2023-02-07T14:00:14;103600.03;;;0.03;98.80
36092;BME280;22147;52.388;13.390;2023-02-07T14:02:51;103588.88;;;0.04;98.03
36092;BME280;22147;52.388;13.390;2023-02-07T14:05:42;103580.31;;;0.07;96.70
36092;BME280;22147;52.388;13.390;2023-02-07T14:10:52;103581.25;;;0.14;95.91
36092;BME280;22147;52.388;13.390;2023-02-07T14:16:11;103568.34;;;0.23;96.22
36092;BME280;22147;52.388;13.390;2023-02-07T14:19:01;103576.06;;;0.34;95.00
36092;BME280;22147;52.388;13.390;2023-02-07T14:21:40;103570.81;;;0.03;96.03
36092;BME280;22147;52.388;13.390;2023-02-07T14:24:19;103563.44;;;-0.11;95.83
36092;BME280;22147;52.388;13.390;2023-02-07T14:26:59;103570.31;;;-0.15;96.66
36092;BME280;22147;52.388;13.390;2023-02-07T14:32:31;103579.16;;;-0.28;96.87
36092;BME280;22147;52.388;13.390;2023-02-07T14:37:54;103582.97;;;-0.52;97.95
36092;BME280;22147;52.388;13.390;2023-02-07T14:40:55;103589.28;;;-0.52;96.85
36092;BME280;22147;52.388;13.390;2023-02-07T14:43:47;103586.13;;;-0.64;100.00
36092;BME280;22147;52.388;13.390;2023-02-07T14:46:46;103583.66;;;-0.73;98.55
36092;BME280;22147;52.388;13.390;2023-02-07T14:49:43;103579.75;;;-0.79;100.00
36092;BME280;22147;52.388;13.390;2023-02-07T14:52:30;103575.09;;;-0.70;100.00
36092;BME280;22147;52.388;13.390;2023-02-07T14:55:29;103571.22;;;-0.76;98.58
36092;BME280;22147;52.388;13.390;2023-02-07T14:58:43;103571.91;;;-0.74;99.72
36092;BME280;22147;52.388;13.390;2023-02-07T15:01:17;103564.78;;;-0.83;100.00
36092;BME280;22147;52.388;13.390;2023-02-07T15:04:04;103561.22;;;-0.84;99.83
36092;BME280;22147;52.388;13.390;2023-02-07T15:06:41;103563.09;;;-0.84;100.00
36092;BME280;22147;52.388;13.390;2023-02-07T15:09:23;103557.03;;;-0.94;100.00
36092;BME280;22147;52.388;13.390;2023-02-07T15:12:07;103555.56;;;-1.05;100.00
36092;BME280;22147;52.388;13.390;2023-02-07T15:14:56;103553.41;;;-1.10;100.00
36092;BME280;22147;52.388;13.390;2023-02-07T15:17:26;103549.13;;;-1.12;100.00
36092;BME280;22147;52.388;13.390;2023-02-07T15:20:20;103549.88;;;-1.18;100.00
36092;BME280;22147;52.388;13.390;2023-02-07T15:22:59;103552.66;;;-1.27;100.00
36092;BME280;22147;52.388;13.390;2023-02-07T15:25:34;103552.19;;;-1.38;100.00
36092;BME280;22147;52.388;13.390;2023-02-07T15:28:26;103552.78;;;-1.51;100.00